Ana Sayfa
METAR-TAF:

METAR-TAF

Havaalanları :

Pitt-Greenville Airport

Greenville, Kuzey Carolina, Amerika Birleşik Devletleri

Enlem: 35-38N, Boylam: 077-24W, yükseklik: 8 m

Güncel hava durumu gözlemi

Rapor saat 01:35 UTC de 22 dakika önce yapıldı.
Sakin rüzgar
Sıcaklık 16°C
Nem 100%
Basınç 1018 hPa
Görüş mesafesi: 11.3 km
Açık gökyüzü

METAR: KPGV 070135Z AUTO 00000KT 7SM CLR 16/16 A3005 RMK AO2

Saat: 21:57 (01:57 UTC)

Tahmin

Rapor saat 23:20 UTC de 2 saat ve 37 dakika önce yapıldı.
Ayın 07'si saat 00 UTC'den ayın 07'si saat 24 UTC'ye kadar geçerli Tahmin
Rüzgar batı/güneybatıdan 4 kt
Görüş mesafesi: 10 km
5000 ft yükseklikte az bulutlu

TAF: KPGV 062320Z 0700/0724 24004KT P6SM FEW050 AMD LTD TO CLD VIS AND WIND

4.000'den fazla havaalanı için hava durumu gözlemleri ve tahminleri (METAR ve TAF raporları).

Kullanılabilir istasyonlar harita üzerinde sarı ve kırmızı noktalarla gösterilir.

İstasyonun adını görmek için fareyi noktanın üzerinde gezdirin.

Sonrasında hava gözlem ve tahminlerini görmek için tıklayın.

Haritayı değiştirmek için: yaklaştırmak için siyah artı işaretli yeşil düğmeye ve uzaklaştırmak için de eksi işaretli düğmeye hızla tıklayın; bitişik haritalar için yeşil okları kullanın.


METAR-TAF: